Main page
METAR-TAF:

METAR-TAF

Airports :

Varna Airport

Varna, Bulgaria

latitude: 43-12N, longitude: 027-55E, elevation: 41 m

Current weather observation

The report was made 47 minutes ago, at 06:00 UTC
Wind 5 kt from variable directions
Temperature -3°C
Humidity 74%
Pressure 1036 hPa
Visibility 10 km or more
Broken clouds at a height of 3000 ft

METAR: LBWN 080600Z VRB05KT 9999 BKN030 M03/M07 Q1036 NOSIG

Time: 08:47 (06:47 UTC)

Forecast

The report was made 1 hour and 47 minutes ago, at 05:00 UTC
Forecast valid from 08 at 06 UTC to 09 at 06 UTC
Wind 15 kt from the West/Northwest
Visibility 10 km or more
Scattered clouds at a height of 2500 ft
Broken clouds at a height of 4000 ft
Becoming
from 08 at 06 UTC to 08 at 08 UTC
Wind 20 kt from the North with gusts up to 30 kt
Temporary
from 08 at 09 UTC to 08 at 16 UTC
Visibility: 3000 m
Broken clouds at a height of 1000 ft
Overcast at a height of 2000 ft
snow

TAF: LBWN 080500Z 0806/0906 30015KT 9999 SCT025 BKN040 BECMG 0806/0808 36020G30KT TEMPO 0809/0816 3000 SN BKN010 OVC020

Weather observations and forecasts of more than 4000 airports (METAR and TAF reports).

The available stations are represented by yellow and red dots on the map.

Hover mouse over dot to see the name of the station.

Then click to see weather observations and forecasts.

To change the map : click on the green buttons with a black cross to zoom in, on the green button with a dash to zoom out, or on the green arrows for adjacent maps.


METAR-TAF: